createdAt,value
2018-09-27T00:02:49.991Z,4.43
2018-09-27T00:07:53.718Z,4.30
2018-09-27T00:12:57.414Z,5.67
2018-09-27T00:18:01.127Z,4.70
2018-09-27T00:23:04.818Z,4.40
2018-09-27T00:28:08.534Z,4.80
2018-09-27T00:33:12.262Z,4.17
2018-09-27T00:38:15.954Z,4.47
2018-09-27T00:43:19.662Z,4.40
2018-09-27T00:48:23.363Z,3.07
2018-09-27T00:53:27.070Z,5.40
2018-09-27T00:58:30.759Z,4.10
2018-09-27T01:03:34.466Z,3.87
2018-09-27T01:08:38.190Z,4.00
2018-09-27T01:13:41.902Z,3.90
2018-09-27T01:18:45.650Z,3.80
2018-09-27T01:23:49.359Z,4.40
2018-09-27T01:28:53.055Z,3.37
2018-09-27T01:33:56.775Z,4.07
2018-09-27T01:39:00.470Z,3.60
2018-09-27T01:44:04.261Z,3.13
2018-09-27T01:49:07.967Z,4.20
2018-09-27T01:54:11.698Z,4.10
2018-09-27T01:59:15.399Z,4.10
2018-09-27T02:04:19.101Z,3.67
2018-09-27T02:09:22.839Z,4.83
2018-09-27T02:14:26.675Z,3.53
2018-09-27T02:19:30.383Z,3.60
2018-09-27T02:24:34.124Z,4.33
2018-09-27T02:29:37.888Z,4.30
2018-09-27T02:34:41.616Z,4.03
2018-09-27T02:39:45.355Z,5.00
2018-09-27T02:44:49.072Z,4.53
2018-09-27T02:49:52.811Z,4.50
2018-09-27T02:54:56.535Z,3.93
2018-09-27T03:00:00.280Z,4.67
2018-09-27T03:05:04.192Z,4.57
2018-09-27T03:10:07.955Z,4.07
2018-09-27T03:15:11.717Z,4.50
2018-09-27T03:20:15.448Z,3.73
2018-09-27T03:25:19.192Z,4.60
2018-09-27T03:30:22.905Z,4.23
2018-09-27T03:35:26.743Z,4.63
2018-09-27T03:40:30.509Z,4.23
2018-09-27T03:45:34.215Z,3.97
2018-09-27T03:50:37.938Z,4.77
2018-09-27T03:55:41.668Z,4.60
2018-09-27T04:00:45.381Z,5.57
2018-09-27T04:05:49.151Z,5.33
2018-09-27T04:10:52.874Z,5.27
2018-09-27T04:15:56.672Z,4.57
2018-09-27T04:21:00.331Z,4.90
2018-09-27T04:26:04.040Z,4.70
2018-09-27T04:31:07.891Z,3.90
2018-09-27T04:36:11.645Z,4.23
2018-09-27T04:41:15.349Z,5.23
2018-09-27T04:46:19.072Z,4.63
2018-09-27T04:51:22.780Z,4.90
2018-09-27T04:56:26.528Z,4.47
2018-09-27T05:01:30.231Z,5.53
2018-09-27T05:06:33.940Z,5.23
2018-09-27T05:11:37.693Z,4.40
2018-09-27T05:16:41.414Z,4.57
2018-09-27T05:21:45.260Z,4.40
2018-09-27T05:26:48.864Z,5.03
2018-09-27T05:31:52.571Z,4.33
2018-09-27T05:36:56.299Z,4.43
2018-09-27T05:42:00.052Z,5.00
2018-09-27T05:47:03.759Z,4.40
2018-09-27T05:52:07.516Z,5.93
2018-09-27T05:57:11.378Z,5.90
2018-09-27T06:02:15.108Z,6.43
2018-09-27T06:07:18.879Z,8.77
2018-09-27T06:12:22.659Z,6.93
2018-09-27T06:17:26.343Z,7.10
2018-09-27T06:22:30.099Z,6.60
2018-09-27T06:27:34.614Z,6.20
2018-09-27T06:32:38.539Z,8.30
2018-09-27T06:37:42.280Z,9.00
2018-09-27T06:42:46.020Z,7.63
2018-09-27T06:47:49.760Z,7.40
2018-09-27T06:52:53.736Z,8.93
2018-09-27T06:57:57.460Z,8.73
2018-09-27T07:03:01.233Z,8.70
2018-09-27T07:08:05.247Z,9.63
2018-09-27T07:13:08.967Z,8.97
2018-09-27T07:18:12.715Z,6.73
2018-09-27T07:23:16.444Z,9.50
2018-09-27T07:28:20.175Z,10.73
2018-09-27T07:33:23.912Z,9.90
2018-09-27T07:38:27.755Z,9.93
2018-09-27T07:43:31.417Z,9.67
2018-09-27T07:48:35.232Z,10.83
2018-09-27T07:53:38.884Z,11.50
2018-09-27T07:58:42.673Z,8.93
2018-09-27T08:03:46.550Z,8.93
2018-09-27T08:08:50.255Z,8.17
2018-09-27T08:13:53.993Z,7.57
2018-09-27T08:18:57.759Z,6.93
2018-09-27T08:24:01.615Z,7.87
2018-09-27T08:29:05.604Z,9.57
2018-09-27T08:34:09.479Z,6.97
2018-09-27T08:39:13.312Z,6.20
2018-09-27T08:44:17.044Z,6.47
2018-09-27T08:49:20.828Z,5.90
2018-09-27T08:54:24.551Z,5.80
2018-09-27T08:59:28.279Z,6.07
2018-09-27T09:04:32.012Z,5.80
2018-09-27T09:09:35.832Z,5.47
2018-09-27T09:14:39.495Z,6.97
2018-09-27T09:19:43.294Z,4.83
2018-09-27T09:24:46.951Z,3.80
2018-09-27T09:29:50.784Z,4.50
2018-09-27T09:34:54.409Z,3.50
2018-09-27T09:39:58.152Z,3.67
2018-09-27T09:45:01.896Z,2.50
2018-09-27T09:50:05.689Z,3.23
2018-09-27T09:55:09.347Z,3.87
2018-09-27T10:00:13.092Z,3.30
2018-09-27T10:05:16.820Z,2.97
2018-09-27T10:10:20.534Z,2.90
2018-09-27T10:15:24.304Z,2.60
2018-09-27T10:20:28.023Z,2.53
2018-09-27T10:25:31.763Z,2.50
2018-09-27T10:30:35.566Z,4.13
2018-09-27T10:35:39.363Z,4.47
2018-09-27T10:40:43.240Z,2.83
2018-09-27T10:45:46.944Z,4.00
2018-09-27T10:50:50.749Z,3.97
2018-09-27T10:55:54.463Z,3.13
2018-09-27T11:00:58.191Z,3.50
2018-09-27T11:06:01.940Z,5.30
2018-09-27T11:11:06.068Z,4.30
2018-09-27T11:16:09.751Z,4.00
2018-09-27T11:21:13.517Z,3.60
2018-09-27T11:26:17.258Z,5.53
2018-09-27T11:31:26.378Z,4.50
2018-09-27T11:36:30.096Z,4.70
2018-09-27T11:41:33.816Z,5.83
2018-09-27T11:46:37.527Z,4.47
2018-09-27T11:51:41.250Z,4.43
2018-09-27T11:56:45.051Z,3.90
2018-09-27T12:01:48.798Z,3.57
2018-09-27T12:06:52.500Z,4.30
2018-09-27T12:11:56.893Z,4.13
2018-09-27T12:17:00.619Z,4.00
2018-09-27T12:22:04.402Z,3.40
2018-09-27T12:27:08.137Z,5.13
2018-09-27T12:32:11.902Z,3.37
2018-09-27T12:37:15.605Z,3.50
2018-09-27T12:42:19.406Z,4.33
2018-09-27T12:47:23.079Z,3.53
2018-09-27T12:52:26.865Z,3.03
2018-09-27T12:57:30.610Z,4.73
2018-09-27T13:02:34.429Z,2.77
2018-09-27T13:07:38.079Z,3.57
2018-09-27T13:12:41.875Z,2.90
2018-09-27T13:17:45.584Z,2.50
2018-09-27T13:22:49.298Z,2.87
2018-09-27T13:27:53.032Z,4.00
2018-09-27T13:32:56.797Z,3.10
2018-09-27T13:38:00.497Z,2.97
2018-09-27T13:43:04.259Z,2.27
2018-09-27T13:48:07.947Z,2.90
2018-09-27T13:53:11.751Z,3.60
2018-09-27T13:58:15.476Z,2.20
2018-09-27T14:03:19.209Z,4.20
2018-09-27T14:08:23.047Z,2.37
2018-09-27T14:13:26.790Z,3.10
2018-09-27T14:18:30.510Z,2.83
2018-09-27T14:23:34.210Z,2.93
2018-09-27T14:28:37.976Z,2.87
2018-09-27T14:33:41.688Z,2.60
2018-09-27T14:38:45.479Z,2.73
2018-09-27T14:43:49.280Z,3.40
2018-09-27T14:48:52.987Z,4.00
2018-09-27T14:53:56.852Z,2.70
2018-09-27T14:59:00.589Z,2.57
2018-09-27T15:04:04.319Z,2.70
2018-09-27T15:09:09.459Z,2.80
2018-09-27T15:14:13.168Z,2.13
2018-09-27T15:19:16.887Z,3.00
2018-09-27T15:24:20.699Z,2.90
2018-09-27T15:29:24.520Z,2.80
2018-09-27T15:34:28.276Z,3.03
2018-09-27T15:39:32.027Z,2.20
2018-09-27T15:44:35.780Z,2.20
2018-09-27T15:49:39.513Z,1.90
2018-09-27T15:54:43.355Z,2.20
2018-09-27T15:59:47.152Z,2.00
2018-09-27T16:04:51.045Z,2.30
2018-09-27T16:09:54.730Z,2.30
2018-09-27T16:14:58.567Z,2.03
2018-09-27T16:20:02.331Z,1.60
2018-09-27T16:25:06.605Z,1.60
2018-09-27T16:30:10.323Z,2.00
2018-09-27T16:35:14.044Z,1.47
2018-09-27T16:40:17.812Z,2.20
2018-09-27T16:45:21.531Z,1.60
2018-09-27T16:50:25.284Z,1.60
2018-09-27T16:55:28.995Z,1.47
2018-09-27T17:00:32.727Z,1.73
2018-09-27T17:05:36.564Z,1.83
2018-09-27T17:10:40.400Z,1.67
2018-09-27T17:15:44.108Z,1.40
2018-09-27T17:20:47.911Z,1.80
2018-09-27T17:25:51.771Z,1.23
2018-09-27T17:30:55.496Z,1.90
2018-09-27T17:35:59.298Z,1.60
2018-09-27T17:41:03.047Z,1.40
2018-09-27T17:46:06.992Z,1.50
2018-09-27T17:51:10.811Z,1.60
2018-09-27T17:56:14.520Z,1.87
2018-09-27T18:01:18.292Z,1.53
2018-09-27T18:06:22.032Z,1.80
2018-09-27T18:11:25.755Z,1.50
2018-09-27T18:16:29.493Z,1.70
2018-09-27T18:21:33.330Z,2.63
2018-09-27T18:26:37.104Z,2.30
2018-09-27T18:31:40.984Z,2.10
2018-09-27T18:36:45.955Z,1.80
2018-09-27T18:41:49.688Z,1.57
2018-09-27T18:46:53.537Z,1.87
2018-09-27T18:51:57.292Z,1.47
2018-09-27T18:57:01.026Z,1.80
2018-09-27T19:02:04.840Z,1.80
2018-09-27T19:07:08.598Z,2.53
2018-09-27T19:12:12.537Z,4.30
2018-09-27T19:17:16.458Z,5.23
2018-09-27T19:22:20.188Z,4.70
2018-09-27T19:27:24.004Z,2.57
2018-09-27T19:32:27.848Z,2.20
2018-09-27T19:37:31.663Z,1.80
2018-09-27T19:42:35.409Z,2.27
2018-09-27T19:47:39.214Z,2.63
2018-09-27T19:52:43.036Z,2.10
2018-09-27T19:57:47.087Z,2.47
2018-09-27T20:02:52.478Z,2.00
2018-09-27T20:07:56.289Z,2.30
2018-09-27T20:13:00.296Z,1.87
2018-09-27T20:18:04.073Z,2.50
2018-09-27T20:23:07.960Z,2.57
2018-09-27T20:28:11.933Z,2.63
2018-09-27T20:33:22.343Z,2.70
2018-09-27T20:38:26.039Z,2.40
2018-09-27T20:43:29.851Z,2.40
2018-09-27T20:48:33.605Z,2.50
2018-09-27T20:53:37.335Z,3.27
2018-09-27T20:58:41.052Z,3.03
2018-09-27T21:03:44.797Z,3.07
2018-09-27T21:08:48.571Z,2.97
2018-09-27T21:13:52.292Z,3.50
2018-09-27T21:18:56.031Z,3.43
2018-09-27T21:23:59.770Z,2.97
2018-09-27T21:29:03.683Z,3.43
2018-09-27T21:34:07.427Z,3.37
2018-09-27T21:39:11.154Z,3.80
2018-09-27T21:44:14.870Z,3.00
2018-09-27T21:49:19.475Z,4.10
2018-09-27T21:54:23.199Z,4.07
2018-09-27T21:59:26.907Z,4.90
2018-09-27T22:04:30.624Z,4.90
2018-09-27T22:09:34.439Z,4.50
2018-09-27T22:14:38.219Z,6.00
2018-09-27T22:19:41.986Z,5.83
2018-09-27T22:24:46.063Z,5.47
2018-09-27T22:29:49.783Z,5.80
2018-09-27T22:34:53.518Z,4.93
2018-09-27T22:39:57.251Z,6.80
2018-09-27T22:45:00.992Z,6.80
2018-09-27T22:50:04.715Z,6.87
2018-09-27T22:55:08.472Z,7.27
2018-09-27T23:00:12.215Z,8.10
2018-09-27T23:05:15.933Z,7.80
2018-09-27T23:10:19.643Z,9.07
2018-09-27T23:15:23.383Z,9.83
2018-09-27T23:20:27.112Z,10.00
2018-09-27T23:25:30.851Z,10.50
2018-09-27T23:30:34.588Z,9.73
2018-09-27T23:35:38.371Z,10.20
2018-09-27T23:40:42.085Z,9.27
2018-09-27T23:45:45.808Z,10.30
2018-09-27T23:50:49.535Z,12.37
2018-09-27T23:55:53.287Z,10.90
